Time,TemperatureF,DewpointF,PressureIn,WindDirection,WindDirectionDegrees,WindSpeedMPH,WindSpeedGustMPH,Humidity,HourlyPrecipIn,Conditions,Clouds,dailyrainin,SoftwareType,DateUTC
2013-04-30 00:42:00,77.0,-99.9,-100.00,North,3,5.0,7.0,-999,-99.99,,,-99.99,,2013-04-30 07:42:00,
2013-04-30 00:52:00,77.0,-99.9,-100.00,North,3,5.0,7.0,-999,-99.99,,,-99.99,,2013-04-30 07:52:00,
2013-04-30 03:22:00,71.0,-99.9,-100.00,North,5,11.0,11.0,-999,-99.99,,,-99.99,,2013-04-30 10:22:00,
2013-04-30 03:30:00,69.0,-99.9,-100.00,SSE,147,9.0,11.0,-999,-99.99,,,-99.99,,2013-04-30 10:30:00,
2013-04-30 03:33:00,71.0,-99.9,-100.00,North,5,11.0,11.0,-999,-99.99,,,-99.99,,2013-04-30 10:33:00,
2013-04-30 04:22:00,69.0,-99.9,-100.00,SSE,147,9.0,11.0,-999,-99.99,,,-99.99,,2013-04-30 11:22:00,
2013-04-30 05:50:00,69.0,-99.9,-100.00,East,82,2.0,5.0,-999,-99.99,,,-99.99,,2013-04-30 12:50:00,
2013-04-30 06:41:00,69.0,-99.9,-100.00,East,82,2.0,5.0,-999,-99.99,,,-99.99,,2013-04-30 13:41:00,
2013-04-30 07:02:00,69.0,-99.9,-100.00,ESE,103,1.0,9.0,-999,-99.99,,,-99.99,,2013-04-30 14:02:00,
2013-04-30 07:11:00,69.0,-99.9,-100.00,ESE,103,1.0,9.0,-999,-99.99,,,-99.99,,2013-04-30 14:11:00,
2013-04-30 07:21:00,69.0,-99.9,-100.00,ESE,103,1.0,9.0,-999,-99.99,,,-99.99,,2013-04-30 14:21:00,
2013-04-30 07:52:00,73.0,-99.9,-100.00,SSW,199,3.0,9.0,-999,-99.99,,,-99.99,,2013-04-30 14:52:00,
2013-04-30 08:02:00,73.0,-99.9,-100.00,SSW,199,3.0,9.0,-999,-99.99,,,-99.99,,2013-04-30 15:02:00,
2013-04-30 08:11:00,73.0,-99.9,-100.00,SSW,199,3.0,9.0,-999,-99.99,,,-99.99,,2013-04-30 15:11:00,
2013-04-30 09:30:00,80.0,-99.9,-100.00,SSW,212,4.0,7.0,-999,-99.99,,,-99.99,,2013-04-30 16:30:00,
2013-04-30 09:33:00,77.0,-99.9,-100.00,SW,223,6.0,7.0,-999,-99.99,,,-99.99,,2013-04-30 16:33:00,
2013-04-30 09:42:00,77.0,-99.9,-100.00,SW,223,6.0,7.0,-999,-99.99,,,-99.99,,2013-04-30 16:42:00,
2013-04-30 09:53:00,79.0,-99.9,-100.00,SW,229,3.0,6.0,-999,-99.99,,,-99.99,,2013-04-30 16:53:00,
2013-04-30 10:02:00,79.0,-99.9,-100.00,SW,229,3.0,6.0,-999,-99.99,,,-99.99,,2013-04-30 17:02:00,
2013-04-30 10:22:00,80.0,-99.9,-100.00,SSW,212,4.0,7.0,-999,-99.99,,,-99.99,,2013-04-30 17:22:00,
2013-04-30 11:01:00,83.0,-99.9,-100.00,SW,222,4.0,10.0,-999,-99.99,,,-99.99,,2013-04-30 18:01:00,
2013-04-30 11:11:00,83.0,-99.9,-100.00,SW,222,4.0,10.0,-999,-99.99,,,-99.99,,2013-04-30 18:11:00,
2013-04-30 11:22:00,83.0,-99.9,-100.00,West,270,3.0,9.0,-999,-99.99,,,-99.99,,2013-04-30 18:22:00,
2013-04-30 11:32:00,83.0,-99.9,-100.00,West,270,3.0,9.0,-999,-99.99,,,-99.99,,2013-04-30 18:32:00,
2013-04-30 13:02:00,89.0,-99.9,-100.00,SW,221,8.0,19.0,-999,-99.99,,,-99.99,,2013-04-30 20:02:00,
2013-04-30 13:11:00,89.0,-99.9,-100.00,SW,221,8.0,19.0,-999,-99.99,,,-99.99,,2013-04-30 20:11:00,
2013-04-30 13:22:00,89.0,-99.9,-100.00,SSW,203,15.0,15.0,-999,-99.99,,,-99.99,,2013-04-30 20:22:00,
2013-04-30 13:32:00,89.0,-99.9,-100.00,SSW,203,15.0,15.0,-999,-99.99,,,-99.99,,2013-04-30 20:32:00,
2013-04-30 13:40:00,92.0,-99.9,-100.00,WSW,237,9.0,12.0,-999,-99.99,,,-99.99,,2013-04-30 20:40:00,
2013-04-30 14:02:00,91.0,-99.9,-100.00,SSW,213,6.0,17.0,-999,-99.99,,,-99.99,,2013-04-30 21:02:00,
2013-04-30 14:11:00,91.0,-99.9,-100.00,SSW,213,6.0,17.0,-999,-99.99,,,-99.99,,2013-04-30 21:11:00,
2013-04-30 14:22:00,92.0,-99.9,-100.00,WSW,237,9.0,12.0,-999,-99.99,,,-99.99,,2013-04-30 21:22:00,
2013-04-30 14:33:00,92.0,-99.9,-100.00,WSW,237,9.0,12.0,-999,-99.99,,,-99.99,,2013-04-30 21:33:00,
2013-04-30 14:53:00,93.0,-99.9,-100.00,WSW,237,9.0,17.0,-999,-99.99,,,-99.99,,2013-04-30 21:53:00,
2013-04-30 15:03:00,93.0,-99.9,-100.00,SW,223,14.0,23.0,-999,-99.99,,,-99.99,,2013-04-30 22:03:00,
2013-04-30 15:10:00,94.0,-99.9,-100.00,WSW,250,17.0,19.0,-999,-99.99,,,-99.99,,2013-04-30 22:10:00,
2013-04-30 15:12:00,93.0,-99.9,-100.00,SW,223,14.0,23.0,-999,-99.99,,,-99.99,,2013-04-30 22:12:00,
2013-04-30 15:23:00,94.0,-99.9,-100.00,WSW,250,18.0,21.0,-999,-99.99,,,-99.99,,2013-04-30 22:23:00,
2013-04-30 15:33:00,94.0,-99.9,-100.00,SW,214,17.0,19.0,-999,-99.99,,,-99.99,,2013-04-30 22:33:00,
2013-04-30 15:42:00,94.0,-99.9,-100.00,SW,214,17.0,19.0,-999,-99.99,,,-99.99,,2013-04-30 22:42:00,
2013-04-30 15:53:00,94.0,-99.9,-100.00,WSW,250,17.0,19.0,-999,-99.99,,,-99.99,,2013-04-30 22:53:00,
2013-04-30 16:03:00,94.0,-99.9,-100.00,WSW,250,17.0,19.0,-999,-99.99,,,-99.99,,2013-04-30 23:03:00,
2013-04-30 16:32:00,94.0,-99.9,-100.00,WSW,241,14.0,17.0,-999,-99.99,,,-99.99,,2013-04-30 23:32:00,
2013-04-30 16:42:00,94.0,-99.9,-100.00,WSW,241,14.0,17.0,-999,-99.99,,,-99.99,,2013-04-30 23:42:00,
2013-04-30 16:52:00,94.0,-99.9,-100.00,WSW,241,14.0,17.0,-999,-99.99,,,-99.99,,2013-04-30 23:52:00,
2013-04-30 19:22:00,87.0,-99.9,-100.00,WSW,238,15.0,18.0,-999,-99.99,,,-99.99,,2013-05-01 02:22:00,
2013-04-30 19:32:00,87.0,-99.9,-100.00,WSW,238,15.0,18.0,-999,-99.99,,,-99.99,,2013-05-01 02:32:00,
2013-04-30 19:40:00,83.0,-99.9,-100.00,West,270,5.0,8.0,-999,-99.99,,,-99.99,,2013-05-01 02:40:00,
2013-04-30 20:22:00,83.0,-99.9,-100.00,West,270,5.0,8.0,-999,-99.99,,,-99.99,,2013-05-01 03:22:00,
2013-04-30 20:33:00,83.0,-99.9,-100.00,West,270,5.0,8.0,-999,-99.99,,,-99.99,,2013-05-01 03:33:00,
2013-04-30 20:53:00,82.0,-99.9,-100.00,SW,220,6.0,6.0,-999,-99.99,,,-99.99,,2013-05-01 03:53:00,
2013-04-30 21:03:00,81.0,-99.9,-100.00,SSW,202,6.0,7.0,-999,-99.99,,,-99.99,,2013-05-01 04:03:00,
2013-04-30 21:12:00,81.0,-99.9,-100.00,SSW,202,6.0,7.0,-999,-99.99,,,-99.99,,2013-05-01 04:12:00,
2013-04-30 21:23:00,80.0,-99.9,-100.00,SW,220,2.0,4.0,-999,-99.99,,,-99.99,,2013-05-01 04:23:00,
2013-04-30 21:32:00,80.0,-99.9,-100.00,SW,220,2.0,4.0,-999,-99.99,,,-99.99,,2013-05-01 04:32:00,
2013-04-30 22:22:00,77.0,-99.9,-100.00,West,265,0.0,3.0,-999,-99.99,,,-99.99,,2013-05-01 05:22:00,
2013-04-30 22:30:00,74.0,-99.9,-100.00,SSW,196,6.0,7.0,-999,-99.99,,,-99.99,,2013-05-01 05:30:00,
2013-04-30 22:32:00,77.0,-99.9,-100.00,West,265,0.0,3.0,-999,-99.99,,,-99.99,,2013-05-01 05:32:00,
2013-04-30 23:02:00,76.0,-99.9,-100.00,SSW,210,6.0,7.0,-999,-99.99,,,-99.99,,2013-05-01 06:02:00,
2013-04-30 23:12:00,76.0,-99.9,-100.00,SSW,210,6.0,7.0,-999,-99.99,,,-99.99,,2013-05-01 06:12:00,
2013-04-30 23:22:00,74.0,-99.9,-100.00,SSW,196,6.0,7.0,-999,-99.99,,,-99.99,,2013-05-01 06:22:00,